• Join FlightAware (Why Join?)
  • Login
  • US Flag 
04:38PM EDT


 

Airport Tracker/Info


-or-


 

Live Flight TrackerFlight Track Log ✈ ASQ5953 ✈ 08-Jul-2014 ✈ KORD - KMSN

Flight Track Log - Related Links

Times and Time Zones

All times are in EDT time to prevent confusion due to time zone crossing. See the ASQ5953 flight status page for this flight to view local times or setup timezone preferences in your user account.

Time Position Orientation Groundspeed Altitude Reporting Facility
EDT Latitude Longitude Course Direction KTS MPH feet Rate Location/Type
06:22PM 41.9667 -87.9500 345° North 166 191 2,400  Level Chicago TRACON
06:23PM 42.0333 -87.9500 360° North 236 272 4,200 1,560 Climbing Chicago TRACON
06:24PM 42.0725 -87.9675 342° North 242 278 5,100 480 Climbing Chicago Center
06:25PM 42.1439 -87.9797 353° North 256 295 5,100 360 Level Chicago Center
06:26PM 42.4419 -88.0473 346° North  Level FlightAware Approximate
06:26PM 42.2197 -87.9936 352° North 256 295 5,900  Level Chicago Center
06:27PM 42.5365 -88.0795 345° North  Level FlightAware Approximate
06:27PM 42.2917 -88.0072 352° North 258 297 8,800  Level Chicago Center
06:28PM 42.3589 -88.0086 359° North 260 299 10,500 1,440 Climbing Chicago Center
06:29PM 42.4656 -87.9994 North 321 369 11,800 780 Climbing Chicago Center
06:30PM 42.5542 -88.0425 340° North 334 384 12,100 60 Climbing Chicago Center
06:31PM 42.6444 -88.0808 343° North 336 387 12,000 -60 Descending Chicago Center
06:32PM 42.7339 -88.1181 343° North 336 387 12,000  Level Chicago Center
06:33PM 42.8269 -88.1575 343° North 347 399 12,000 -420 Level Chicago Center
06:34PM 42.8839 -88.2628 306° West 332 382 11,200 -900 Descending Chicago Center
06:35PM 42.9125 -88.3769 289° West 330 380 10,200 -600 Descending Chicago Center
06:36PM 42.9453 -88.5081 289° West 309 356 10,000 -120 Descending Chicago Center
06:37PM 42.9700 -88.6150 288° West 298 343 10,000 -60 Level Chicago Center
06:38PM 42.9889 -88.7172 284° West 279 321 9,900 -1,080 Descending Chicago Center
06:39PM 42.9828 -88.8119 265° West 252 290 7,800 -1,860 Descending Chicago Center
06:40PM 42.9794 -88.9050 267° West 250 288 6,100 -1,740 Descending Chicago Center
06:41PM 42.9808 -88.9969 271° West 248 285 4,300 -1,560 Descending Chicago Center
06:42PM 43.0206 -89.0639 309° West 235 270 2,900 -780 Descending Chicago Center
06:43PM 43.0436 -89.1569 289° West 221 254 2,700 -180 Descending Chicago Center
06:44PM 43.0647 -89.2244 293° West 208 239 2,600 -300 Descending Chicago Center
06:45PM 43.0886 -89.2653 309° West 164 189 2,200 -540 Descending Chicago Center
06:46PM 43.1133 -89.2969 317° Northwest 139 160 1,500 -540 Descending Chicago Center
06:47PM 43.1408 -89.3331 316° Northwest 130 150 1,100 -420 Descending Chicago Center